Time;durP1;ratioP1;P1;durP2;ratioP2;P2;SDS_P1;SDS_P2;PMS_P1;PMS_P2;Temp;Humidity;BMP_temperature;BMP_pressure;BME280_temperature;BME280_humidity;BME280_pressure;Samples;Min_cycle;Max_cycle;Signal;HPM_P1;HPM_P2
2023/03/17 00:04:51;;;;;;;73.10;40.30;;;;;;;2.64;57.29;99824.52;223387;183;147529;-72
2023/03/17 00:09:54;;;;;;;79.00;40.40;;;;;;;2.59;57.44;99822.50;223470;193;139725;-72
2023/03/17 00:15:01;;;;;;;83.00;40.90;;;;;;;2.54;57.67;99822.75;223473;183;137208;-71
2023/03/17 00:20:19;;;;;;;77.90;40.10;;;;;;;2.50;57.64;99822.82;223543;183;148674;-71
2023/03/17 00:25:26;;;;;;;85.60;42.00;;;;;;;2.45;57.59;99819.77;223477;182;139892;-71
2023/03/17 00:30:30;;;;;;;82.10;41.70;;;;;;;2.44;57.79;99823.80;223464;183;136842;-71
2023/03/17 00:35:34;;;;;;;85.90;42.60;;;;;;;2.39;57.82;99829.15;223432;183;147663;-71
2023/03/17 00:40:37;;;;;;;85.50;45.00;;;;;;;2.33;57.97;99825.39;223488;183;138761;-71
2023/03/17 00:45:41;;;;;;;96.60;47.50;;;;;;;2.28;58.16;99825.29;223506;182;136812;-71
2023/03/17 00:50:46;;;;;;;88.10;46.00;;;;;;;2.23;58.02;99826.59;223367;182;147448;-71
2023/03/17 00:55:50;;;;;;;88.90;46.80;;;;;;;2.20;58.21;99824.36;223474;183;138937;-71
2023/03/17 01:00:55;;;;;;;100.60;47.20;;;;;;;2.16;58.12;99823.36;222922;183;138490;-72
2023/03/17 01:06:00;;;;;;;92.60;45.80;;;;;;;2.12;58.28;99818.35;223454;182;148157;-72
2023/03/17 01:11:05;;;;;;;87.70;45.00;;;;;;;2.06;58.18;99811.10;223539;182;138234;-71
2023/03/17 01:16:10;;;;;;;84.80;43.90;;;;;;;2.02;58.46;99808.00;223470;182;136674;-71
2023/03/17 01:21:14;;;;;;;93.80;43.10;;;;;;;2.00;58.54;99808.73;223535;183;146833;-72
2023/03/17 01:26:17;;;;;;;88.60;44.50;;;;;;;1.99;58.49;99812.95;223587;182;138697;-72
2023/03/17 01:31:22;;;;;;;78.50;40.60;;;;;;;1.96;58.79;99816.33;223633;183;136631;-72
2023/03/17 01:36:25;;;;;;;81.50;40.90;;;;;;;1.91;58.66;99816.23;222225;184;147144;-73
2023/03/17 01:41:33;;;;;;;84.80;42.60;;;;;;;1.86;59.00;99811.74;223612;183;139176;-73
2023/03/17 01:46:37;;;;;;;78.10;40.70;;;;;;;1.83;58.97;99802.33;223679;182;138241;-72
2023/03/17 01:51:52;;;;;;;83.50;39.90;;;;;;;1.82;58.97;99798.50;222471;182;147598;-71
2023/03/17 01:57:22;;;;;;;82.30;40.70;;;;;;;1.76;58.94;99799.63;223632;182;138576;-71
2023/03/17 02:02:29;;;;;;;78.60;40.00;;;;;;;1.73;59.06;99791.80;223704;182;137077;-71
2023/03/17 02:07:33;;;;;;;79.60;39.10;;;;;;;1.70;59.08;99788.36;223482;182;148400;-72
2023/03/17 02:12:36;;;;;;;86.10;41.10;;;;;;;1.64;59.14;99789.31;223635;183;139469;-71
2023/03/17 02:17:39;;;;;;;73.80;38.10;;;;;;;1.60;59.44;99786.58;223722;182;137034;-72
2023/03/17 02:22:49;;;;;;;79.80;40.10;;;;;;;1.53;59.32;99777.04;223763;182;148185;-71
2023/03/17 02:27:59;;;;;;;89.00;41.40;;;;;;;1.52;59.49;99775.66;223779;183;139043;-71
2023/03/17 02:33:02;;;;;;;84.70;39.60;;;;;;;1.52;59.77;99783.00;223695;183;137296;-72
2023/03/17 02:38:05;;;;;;;81.10;39.20;;;;;;;1.47;59.91;99783.41;223632;182;147136;-71
2023/03/17 02:43:09;;;;;;;77.90;39.40;;;;;;;1.42;60.04;99787.16;223617;182;138323;-70
2023/03/17 02:48:13;;;;;;;80.90;39.70;;;;;;;1.41;60.23;99787.86;223661;183;137161;-71
2023/03/17 02:53:16;;;;;;;76.20;40.50;;;;;;;1.38;60.08;99781.61;223669;182;147589;-72
2023/03/17 02:58:20;;;;;;;80.50;38.70;;;;;;;1.39;60.11;99780.02;223716;182;139167;-71
2023/03/17 03:03:23;;;;;;;77.80;39.10;;;;;;;1.38;60.09;99784.24;223682;183;136757;-72
2023/03/17 03:08:26;;;;;;;75.20;38.90;;;;;;;1.36;60.23;99784.44;223673;183;146979;-72
2023/03/17 03:13:30;;;;;;;86.90;40.10;;;;;;;1.33;60.44;99784.13;223589;183;139472;-71
2023/03/17 03:18:34;;;;;;;84.20;38.40;;;;;;;1.31;60.46;99789.73;223648;183;136844;-69
2023/03/17 03:23:38;;;;;;;79.30;39.00;;;;;;;1.33;60.38;99792.16;223651;183;147929;-69
2023/03/17 03:28:41;;;;;;;77.40;36.10;;;;;;;1.36;60.49;99796.16;223671;182;138875;-69
2023/03/17 03:33:45;;;;;;;78.10;37.70;;;;;;;1.33;60.20;99796.17;223727;182;138082;-70
2023/03/17 03:38:48;;;;;;;78.70;37.30;;;;;;;1.30;60.28;99792.20;223748;182;147258;-72
2023/03/17 03:43:52;;;;;;;75.40;35.50;;;;;;;1.28;60.17;99793.63;223667;183;139328;-73
2023/03/17 03:48:55;;;;;;;64.10;34.30;;;;;;;1.26;60.24;99780.37;223728;182;137791;-71
2023/03/17 03:54:00;;;;;;;59.20;30.70;;;;;;;1.21;60.17;99767.66;223551;182;147124;-72
2023/03/17 03:59:03;;;;;;;117.20;65.20;;;;;;;1.27;60.97;99775.80;223635;182;138077;-70
2023/03/17 04:04:06;;;;;;;63.00;33.50;;;;;;;1.29;60.28;99787.66;223707;182;137794;-69
2023/03/17 04:09:11;;;;;;;164.80;95.10;;;;;;;1.30;60.27;99788.35;223518;182;147295;-73
2023/03/17 04:14:15;;;;;;;74.30;38.90;;;;;;;1.37;60.97;99790.02;223537;182;138243;-68
2023/03/17 04:19:20;;;;;;;79.30;39.00;;;;;;;1.35;60.43;99789.16;223795;182;137530;-68
2023/03/17 04:24:24;;;;;;;85.60;41.40;;;;;;;1.31;60.52;99780.82;223728;182;147552;-70
2023/03/17 04:29:27;;;;;;;268.70;152.60;;;;;;;1.28;60.99;99784.54;223618;183;139872;-70
2023/03/17 04:34:31;;;;;;;76.50;41.60;;;;;;;1.37;60.98;99774.63;223607;182;140545;-73
2023/03/17 04:39:35;;;;;;;77.80;40.50;;;;;;;1.31;60.74;99789.91;223823;182;147043;-72
2023/03/17 04:44:39;;;;;;;82.10;40.40;;;;;;;1.24;60.64;99790.87;223649;182;138978;-73
2023/03/17 04:49:43;;;;;;;85.40;41.00;;;;;;;1.21;60.75;99804.90;223706;182;138143;-73
2023/03/17 04:54:46;;;;;;;86.30;42.00;;;;;;;1.24;60.77;99806.79;223692;182;147466;-72
2023/03/17 04:59:50;;;;;;;79.60;40.10;;;;;;;1.21;60.68;99795.98;223653;183;138210;-73
2023/03/17 05:04:53;;;;;;;86.20;40.20;;;;;;;1.16;60.87;99790.78;223627;183;138822;-73
2023/03/17 05:09:57;;;;;;;124.00;62.70;;;;;;;1.18;61.17;99792.52;223789;182;147528;-72
2023/03/17 05:15:01;;;;;;;85.60;42.10;;;;;;;1.30;61.87;99776.46;223674;182;139180;-72
2023/03/17 05:20:09;;;;;;;75.20;38.70;;;;;;;1.40;60.88;99782.98;223735;183;137283;-72
2023/03/17 05:25:13;;;;;;;74.20;39.20;;;;;;;1.40;60.60;99791.04;223595;183;147332;-72
2023/03/17 05:30:17;;;;;;;75.70;37.80;;;;;;;1.38;60.45;99791.56;223746;182;139484;-72
2023/03/17 05:35:21;;;;;;;67.10;36.40;;;;;;;1.38;60.58;99795.60;223700;182;139251;-72
2023/03/17 05:40:27;;;;;;;71.40;36.80;;;;;;;1.39;60.70;99800.64;223565;182;147842;-72
2023/03/17 05:45:32;;;;;;;74.30;37.70;;;;;;;1.44;60.62;99803.21;223570;182;138328;-72
2023/03/17 05:50:36;;;;;;;66.60;36.50;;;;;;;1.51;60.61;99806.10;223708;182;137041;-72
2023/03/17 05:55:41;;;;;;;73.20;37.60;;;;;;;1.57;60.72;99808.47;223681;182;147134;-72
2023/03/17 06:00:48;;;;;;;67.10;34.70;;;;;;;1.64;60.75;99805.05;223508;182;139280;-72
2023/03/17 06:05:52;;;;;;;66.70;33.60;;;;;;;1.73;60.56;99809.11;223653;182;137899;-72
2023/03/17 06:10:55;;;;;;;65.50;33.90;;;;;;;1.82;60.38;99805.84;223686;182;267265;-72
2023/03/17 06:15:58;;;;;;;64.90;33.50;;;;;;;1.93;60.26;99804.29;223736;182;138749;-72
2023/03/17 06:21:02;;;;;;;64.20;33.50;;;;;;;2.02;60.31;99814.66;223675;183;137524;-72
2023/03/17 06:26:06;;;;;;;62.00;32.60;;;;;;;2.12;60.33;99821.67;223655;183;147204;-72
2023/03/17 06:31:10;;;;;;;65.30;32.20;;;;;;;2.25;60.32;99821.14;223607;183;138798;-72
2023/03/17 06:36:14;;;;;;;58.20;29.80;;;;;;;2.42;60.15;99818.40;223724;182;137793;-72
2023/03/17 06:41:17;;;;;;;56.10;29.00;;;;;;;2.58;59.98;99831.80;223664;183;148158;-71
2023/03/17 06:46:21;;;;;;;59.60;27.40;;;;;;;2.76;59.73;99825.35;223609;183;138664;-72
2023/03/17 06:51:24;;;;;;;50.60;24.90;;;;;;;2.96;59.35;99821.50;223649;182;137548;-72
2023/03/17 06:56:28;;;;;;;57.50;24.00;;;;;;;3.17;58.77;99822.16;223595;182;147765;-73
2023/03/17 07:01:33;;;;;;;57.10;23.00;;;;;;;3.36;58.13;99822.66;223589;182;138826;-72
2023/03/17 07:06:36;;;;;;;50.20;23.30;;;;;;;3.57;57.93;99816.98;223670;182;137965;-75
2023/03/17 07:11:40;;;;;;;56.60;21.60;;;;;;;3.76;57.35;99815.83;223622;182;267184;-78
2023/03/17 07:16:43;;;;;;;64.40;23.90;;;;;;;3.98;56.69;99813.09;223630;183;139324;-75
2023/03/17 07:21:47;;;;;;;52.00;23.50;;;;;;;4.20;56.23;99813.78;223686;182;137192;-74
2023/03/17 07:26:51;;;;;;;47.80;20.40;;;;;;;4.38;55.96;99810.02;223670;182;147085;-80
2023/03/17 07:31:54;;;;;;;40.00;19.50;;;;;;;4.58;54.42;99800.41;223619;182;139183;-75
2023/03/17 07:36:58;;;;;;;42.30;18.40;;;;;;;4.72;54.55;99795.64;223627;183;136621;-74
2023/03/17 07:42:01;;;;;;;35.00;16.70;;;;;;;4.89;54.06;99791.67;223644;183;148841;-75
2023/03/17 07:47:05;;;;;;;36.40;15.00;;;;;;;5.08;53.74;99789.91;223607;182;138655;-74
2023/03/17 07:52:10;;;;;;;36.70;14.90;;;;;;;5.29;53.00;99784.76;223723;179;137303;-75
2023/03/17 07:57:15;;;;;;;47.30;19.10;;;;;;;5.51;52.47;99787.30;223666;182;146799;-76
2023/03/17 08:02:19;;;;;;;22.80;10.90;;;;;;;5.72;51.61;99782.27;223678;182;138839;-76
2023/03/17 08:07:23;;;;;;;31.40;12.80;;;;;;;5.94;50.10;99784.26;223621;182;137314;-77
2023/03/17 08:12:26;;;;;;;20.30;10.50;;;;;;;6.12;49.57;99780.19;223633;182;147179;-73
2023/03/17 08:17:30;;;;;;;19.40;9.50;;;;;;;6.30;48.63;99782.59;223621;182;138774;-75
2023/03/17 08:22:34;;;;;;;22.50;10.60;;;;;;;6.47;48.03;99780.27;223644;182;137420;-73
2023/03/17 08:27:37;;;;;;;25.10;10.00;;;;;;;6.63;47.14;99776.55;223743;183;147213;-73
2023/03/17 08:32:42;;;;;;;21.90;9.50;;;;;;;6.76;46.76;99770.63;223600;182;138233;-74
2023/03/17 08:37:46;;;;;;;30.80;15.50;;;;;;;6.95;46.07;99771.01;223667;183;138682;-74
2023/03/17 08:42:50;;;;;;;23.20;11.10;;;;;;;7.14;46.22;99770.91;223690;183;147790;-74
2023/03/17 08:47:53;;;;;;;23.00;10.30;;;;;;;7.35;46.09;99772.05;223568;182;138503;-74
2023/03/17 08:52:58;;;;;;;20.40;9.40;;;;;;;7.55;45.45;99769.70;223582;183;137294;-73
2023/03/17 08:58:04;;;;;;;17.20;9.80;;;;;;;7.74;44.60;99771.63;223723;182;147995;-74
2023/03/17 09:03:07;;;;;;;25.40;9.80;;;;;;;7.94;44.98;99769.09;223698;182;137486;-74
2023/03/17 09:08:11;;;;;;;22.80;10.10;;;;;;;8.13;44.67;99771.18;223711;183;137085;-74
2023/03/17 09:13:15;;;;;;;24.00;11.40;;;;;;;8.23;44.18;99766.16;223758;182;147039;-76
2023/03/17 09:18:19;;;;;;;26.50;12.00;;;;;;;8.43;44.34;99758.33;223710;183;138857;-76
2023/03/17 09:23:26;;;;;;;22.00;10.60;;;;;;;8.59;44.78;99757.99;223607;183;137245;-75
2023/03/17 09:28:29;;;;;;;;;;;;;;;8.79;43.52;99745.28;223751;183;147230;-76
2023/03/17 09:33:33;;;;;;;19.80;8.50;;;;;;;8.93;42.25;99741.45;223807;182;138941;-76
2023/03/17 09:38:37;;;;;;;24.90;10.30;;;;;;;9.08;41.56;99733.23;223636;183;137228;-75
2023/03/17 09:43:58;;;;;;;14.10;7.10;;;;;;;9.21;41.10;99724.66;223699;183;147005;-75
2023/03/17 09:49:21;;;;;;;10.90;5.50;;;;;;;9.39;39.51;99725.61;223680;182;140353;-73
2023/03/17 09:54:32;;;;;;;14.10;6.00;;;;;;;9.64;38.58;99721.77;223668;182;137197;-72
2023/03/17 09:59:43;;;;;;;9.30;5.00;;;;;;;9.76;37.87;99713.42;223573;182;147209;-72
2023/03/17 10:04:48;;;;;;;11.60;5.10;;;;;;;9.84;37.66;99698.69;223663;182;138381;-73
2023/03/17 10:09:56;;;;;;;9.40;5.30;;;;;;;10.08;37.14;99692.70;223759;183;136728;-73
2023/03/17 10:15:05;;;;;;;10.20;5.00;;;;;;;10.35;35.71;99688.71;223697;182;147378;-74
2023/03/17 10:20:11;;;;;;;10.50;4.90;;;;;;;10.56;34.90;99679.11;223567;183;138991;-74
2023/03/17 10:25:43;;;;;;;13.10;4.80;;;;;;;10.73;34.62;99670.83;223609;182;138351;-71
2023/03/17 10:30:47;;;;;;;10.80;4.10;;;;;;;10.97;33.75;99668.96;223636;182;147492;-73
2023/03/17 10:35:50;;;;;;;7.80;4.10;;;;;;;11.17;32.58;99663.31;223664;182;139318;-72
2023/03/17 10:41:04;;;;;;;8.90;3.90;;;;;;;11.29;32.22;99659.42;223326;182;137000;-74
2023/03/17 10:46:18;;;;;;;8.60;4.30;;;;;;;11.54;31.77;99657.70;223729;183;147742;-74
2023/03/17 10:51:34;;;;;;;9.10;4.30;;;;;;;11.71;32.10;99650.38;223677;183;138068;-73
2023/03/17 10:56:41;;;;;;;9.80;4.60;;;;;;;11.80;31.84;99644.13;223312;183;137284;-73
2023/03/17 11:01:58;;;;;;;9.10;4.00;;;;;;;11.94;31.73;99632.01;223699;182;147575;-75
2023/03/17 11:07:11;;;;;;;12.20;4.20;;;;;;;11.99;31.46;99625.64;223452;183;138713;-74
2023/03/17 11:12:38;;;;;;;31.60;21.20;;;;;;;12.05;30.96;99621.02;223519;182;137720;-74
2023/03/17 11:17:52;;;;;;;8.30;3.90;;;;;;;12.13;30.62;99620.39;223705;182;147663;-74
2023/03/17 11:23:16;;;;;;;13.80;4.40;;;;;;;12.15;30.39;99620.23;223478;182;138769;-74
2023/03/17 11:28:21;;;;;;;7.20;4.00;;;;;;;12.13;30.29;99618.25;223651;182;137501;-74
2023/03/17 11:33:45;;;;;;;9.60;4.70;;;;;;;12.23;29.74;99614.80;223678;182;148257;-74
2023/03/17 11:39:10;;;;;;;8.70;3.90;;;;;;;12.37;29.94;99603.63;223594;182;138722;-74
2023/03/17 11:44:25;;;;;;;7.80;4.10;;;;;;;12.52;29.57;99595.95;223592;183;139724;-74
2023/03/17 11:49:37;;;;;;;9.60;4.70;;;;;;;12.69;29.37;99589.42;223459;183;147066;-74
2023/03/17 11:54:49;;;;;;;12.40;4.40;;;;;;;12.93;28.93;99565.98;223367;182;138259;-74
2023/03/17 12:00:02;;;;;;;7.90;3.80;;;;;;;13.22;28.23;99548.52;223398;193;138239;-74
2023/03/17 12:05:21;;;;;;;8.50;4.30;;;;;;;13.45;28.70;99542.70;223335;183;147198;-77
2023/03/17 12:10:48;;;;;;;8.80;3.80;;;;;;;13.63;27.38;99541.89;223476;216;138773;-75
2023/03/17 12:15:58;;;;;;;8.20;3.70;;;;;;;13.73;26.99;99528.36;223394;183;137525;-74
2023/03/17 12:21:13;;;;;;;9.00;3.80;;;;;;;13.87;26.87;99521.55;223467;182;147018;-74
2023/03/17 12:26:20;;;;;;;8.30;3.60;;;;;;;14.01;27.14;99519.35;223386;183;138793;-75
2023/03/17 12:31:38;;;;;;;11.60;5.20;;;;;;;14.08;27.09;99520.13;223472;183;137240;-74
2023/03/17 12:36:42;;;;;;;9.30;4.10;;;;;;;14.18;26.79;99520.33;223411;183;148281;-74
2023/03/17 12:41:52;;;;;;;9.20;4.30;;;;;;;14.23;27.30;99513.05;223410;182;138611;-74
2023/03/17 12:47:05;;;;;;;8.10;3.70;;;;;;;14.30;27.17;99503.75;223316;182;137104;-74
2023/03/17 12:52:36;;;;;;;7.80;3.60;;;;;;;14.23;26.45;99503.70;223513;182;148830;-74
2023/03/17 12:57:56;;;;;;;8.60;3.20;;;;;;;14.25;26.20;99502.92;223443;184;138184;-75
2023/03/17 13:03:37;;;;;;;7.00;3.50;;;;;;;14.32;26.16;99487.23;223375;182;137471;-71
2023/03/17 13:08:41;;;;;;;6.90;3.80;;;;;;;14.31;26.48;99474.58;223401;186;147454;-72
2023/03/17 13:13:45;;;;;;;11.60;4.20;;;;;;;14.64;35.49;99463.66;223614;182;138808;-73
2023/03/17 13:18:49;;;;;;;8.90;4.20;;;;;;;15.88;34.17;99453.41;223661;183;140446;-67
2023/03/17 13:23:56;;;;;;;8.10;4.50;;;;;;;16.46;30.68;99452.25;223701;182;149314;-67
2023/03/17 13:29:21;;;;;;;8.00;4.00;;;;;;;16.99;27.07;99447.96;223579;183;138878;-67
2023/03/17 13:34:27;;;;;;;11.00;3.70;;;;;;;17.01;26.32;99447.36;223595;182;138309;-66
2023/03/17 13:39:49;;;;;;;8.40;3.70;;;;;;;17.12;25.53;99445.00;223570;182;149434;-73
2023/03/17 13:45:09;;;;;;;9.90;4.00;;;;;;;17.06;24.20;99439.23;223517;182;138731;-70
2023/03/17 13:50:20;;;;;;;6.30;3.70;;;;;;;16.91;24.22;99435.55;223556;182;137851;-71
2023/03/17 13:55:23;;;;;;;12.00;4.00;;;;;;;16.42;23.83;99435.95;223587;182;148998;-73
2023/03/17 14:00:31;;;;;;;10.00;3.40;;;;;;;15.98;24.13;99433.15;223464;182;139692;-70
2023/03/17 14:05:36;;;;;;;9.00;3.60;;;;;;;15.41;24.06;99430.17;223608;182;137625;-70
2023/03/17 14:10:43;;;;;;;7.40;4.00;;;;;;;14.88;24.93;99425.54;223580;183;150231;-69
2023/03/17 14:15:55;;;;;;;6.60;3.60;;;;;;;14.54;25.15;99425.52;223491;182;138321;-70
2023/03/17 14:21:03;;;;;;;10.20;3.70;;;;;;;14.24;25.70;99421.36;223278;182;137034;-70
2023/03/17 14:26:12;;;;;;;9.20;3.80;;;;;;;14.04;26.01;99413.52;223492;182;149024;-69
2023/03/17 14:31:26;;;;;;;11.70;4.20;;;;;;;13.83;25.70;99408.89;223493;182;139243;-69
2023/03/17 14:36:33;;;;;;;10.70;4.10;;;;;;;13.73;25.73;99404.95;223485;183;137469;-69
2023/03/17 14:41:36;;;;;;;9.30;3.90;;;;;;;13.62;25.57;99400.92;223594;183;149840;-70
2023/03/17 14:46:41;;;;;;;7.30;3.30;;;;;;;13.51;25.13;99395.84;223449;182;139129;-71
2023/03/17 14:51:49;;;;;;;7.50;3.70;;;;;;;13.38;25.00;99395.98;223494;183;137912;-74
2023/03/17 14:57:01;;;;;;;8.90;3.60;;;;;;;13.24;24.91;99390.11;223517;182;149364;-73
2023/03/17 15:02:21;;;;;;;7.70;3.50;;;;;;;13.14;24.80;99382.09;223457;183;138782;-73
2023/03/17 15:07:37;;;;;;;5.90;2.90;;;;;;;13.10;24.73;99373.59;223547;182;136924;-73
2023/03/17 15:12:41;;;;;;;8.20;3.30;;;;;;;12.94;24.69;99368.58;223499;182;148931;-73
2023/03/17 15:17:49;;;;;;;11.00;5.50;;;;;;;12.87;25.00;99369.79;223510;182;139713;-72
2023/03/17 15:22:58;;;;;;;11.60;3.00;;;;;;;12.87;24.65;99365.67;223595;182;137960;-72
2023/03/17 15:28:13;;;;;;;6.30;2.80;;;;;;;12.85;24.62;99354.79;223604;183;149722;-73
2023/03/17 15:33:33;;;;;;;17.00;3.00;;;;;;;12.73;24.55;99352.70;223623;182;139074;-76
2023/03/17 16:57:28;;;;;;;9.00;4.20;;;;;;;10.03;33.73;99347.84;222131;189;665503;-65
2023/03/17 17:02:36;;;;;;;11.80;4.10;;;;;;;9.91;33.38;99345.08;223701;183;136918;-66
2023/03/17 17:07:52;;;;;;;10.70;3.80;;;;;;;9.85;33.25;99345.92;223673;183;143671;-66
2023/03/17 17:20:13;;;;;;;7.40;3.70;;;;;;;9.89;33.16;99359.88;223211;188;136247;-63
2023/03/17 17:32:18;;;;;;;7.90;3.80;;;;;;;9.86;33.48;99363.63;221685;193;676580;-71
2023/03/17 17:37:22;;;;;;;8.80;3.60;;;;;;;9.83;33.11;99368.23;223415;185;136481;-72
2023/03/17 17:42:26;;;;;;;9.40;4.00;;;;;;;9.87;33.18;99366.61;223486;185;143585;-71
2023/03/17 17:47:31;;;;;;;11.10;5.60;;;;;;;9.83;33.54;99374.77;223466;185;138797;-71
2023/03/17 17:52:34;;;;;;;;;;;;;;;9.80;33.41;99372.13;223339;185;136529;-71
2023/03/17 17:57:38;;;;;;;11.20;5.80;;;;;;;9.77;33.48;99372.27;223430;185;143881;-71
2023/03/17 18:02:45;;;;;;;13.00;6.70;;;;;;;9.69;34.18;99377.27;223321;185;139354;-72
2023/03/17 18:07:49;;;;;;;98.50;63.70;;;;;;;9.62;34.28;99381.89;223537;185;137323;-71
2023/03/17 18:12:52;;;;;;;31.30;14.00;;;;;;;9.61;35.00;99380.20;223350;185;143728;-72
2023/03/17 18:17:56;;;;;;;19.00;8.40;;;;;;;9.59;34.37;99376.20;223397;185;140815;-71
2023/03/17 18:23:01;;;;;;;17.60;8.50;;;;;;;9.53;34.27;99375.33;223399;185;136847;-72
2023/03/17 18:28:05;;;;;;;19.10;8.70;;;;;;;9.46;34.39;99373.86;223412;184;146191;-71
2023/03/17 18:33:15;;;;;;;16.00;8.40;;;;;;;9.36;34.21;99368.73;223249;184;139630;-71
2023/03/17 18:38:19;;;;;;;16.80;8.50;;;;;;;9.27;34.47;99369.05;223407;184;136533;-72
2023/03/17 18:43:22;;;;;;;19.80;8.60;;;;;;;9.23;34.60;99370.29;223357;184;145840;-71
2023/03/17 18:48:26;;;;;;;17.50;8.30;;;;;;;9.13;34.56;99370.45;223478;184;139497;-70
2023/03/17 18:53:29;;;;;;;19.30;8.70;;;;;;;9.07;34.77;99371.45;223348;184;136348;-70
2023/03/17 18:58:35;;;;;;;17.80;8.40;;;;;;;9.03;34.76;99366.71;223264;185;146438;-70
2023/03/17 19:03:38;;;;;;;17.30;8.60;;;;;;;8.97;34.98;99362.37;223339;184;140018;-70
2023/03/17 19:08:42;;;;;;;19.90;8.50;;;;;;;8.93;35.12;99360.83;222576;185;136298;-71
2023/03/17 19:13:46;;;;;;;20.50;9.80;;;;;;;8.83;35.35;99365.95;222748;184;146347;-71
2023/03/17 19:18:50;;;;;;;22.10;9.10;;;;;;;8.81;35.35;99360.55;220369;184;139419;-73
2023/03/17 19:23:57;;;;;;;20.70;9.30;;;;;;;8.75;35.59;99353.93;223492;184;137248;-72
2023/03/17 19:29:00;;;;;;;18.80;8.70;;;;;;;8.74;35.68;99355.08;223441;184;145940;-72
2023/03/17 19:34:04;;;;;;;19.80;9.40;;;;;;;8.63;35.72;99349.05;223508;184;139897;-73
2023/03/17 19:39:09;;;;;;;22.70;9.20;;;;;;;8.58;35.89;99344.88;223464;185;136232;-74
2023/03/17 19:44:13;;;;;;;89.80;51.50;;;;;;;8.56;37.93;99343.04;223333;185;145650;-72
2023/03/17 19:49:18;;;;;;;23.50;11.70;;;;;;;8.65;36.71;99342.06;222883;185;138722;-73
2023/03/17 19:54:22;;;;;;;23.30;11.70;;;;;;;8.54;36.14;99338.90;222922;184;137338;-70
2023/03/17 19:59:25;;;;;;;22.60;11.80;;;;;;;8.43;36.42;99341.36;223321;185;146317;-70
2023/03/17 20:04:29;;;;;;;26.50;12.60;;;;;;;8.31;36.59;99338.89;223246;184;139211;-70
2023/03/17 20:09:36;;;;;;;24.60;12.70;;;;;;;8.25;36.72;99339.36;222741;185;136728;-72
2023/03/17 20:14:40;;;;;;;27.00;12.60;;;;;;;8.18;36.88;99342.55;223626;184;145371;-72
2023/03/17 20:19:44;;;;;;;23.40;12.20;;;;;;;8.10;37.10;99349.83;223431;184;138319;-72
2023/03/17 20:24:48;;;;;;;24.50;12.20;;;;;;;8.01;37.23;99345.30;223345;184;137145;-72
2023/03/17 20:29:52;;;;;;;23.00;11.60;;;;;;;7.92;37.56;99344.64;223318;184;147807;-74
2023/03/17 20:34:56;;;;;;;31.40;15.70;;;;;;;7.92;38.88;99344.63;223555;185;138846;-73
2023/03/17 20:40:01;;;;;;;22.80;10.90;;;;;;;7.95;38.00;99341.14;223462;184;136488;-74
2023/03/17 20:45:06;;;;;;;24.30;10.70;;;;;;;7.87;38.33;99337.65;223474;184;145682;-71
2023/03/17 20:50:11;;;;;;;23.90;11.70;;;;;;;7.75;38.57;99340.45;223411;184;138720;-72
2023/03/17 20:55:16;;;;;;;22.20;11.10;;;;;;;7.64;39.20;99337.65;223413;184;137081;-72
2023/03/17 21:00:20;;;;;;;23.40;12.10;;;;;;;7.49;39.60;99340.73;223366;184;145318;-71
2023/03/17 21:05:26;;;;;;;27.70;14.20;;;;;;;7.45;40.89;99341.98;223478;184;138508;-73
2023/03/17 21:10:30;;;;;;;36.60;18.60;;;;;;;7.45;40.80;99337.94;220936;184;136624;-73
2023/03/17 21:15:34;;;;;;;20.60;11.90;;;;;;;7.43;40.06;99332.75;223526;184;145048;-74
2023/03/17 21:20:38;;;;;;;23.30;11.50;;;;;;;7.32;40.27;99321.05;223493;184;139101;-72
2023/03/17 21:25:42;;;;;;;26.00;12.10;;;;;;;7.25;40.35;99322.21;223583;184;137257;-72
2023/03/17 21:30:45;;;;;;;21.00;10.30;;;;;;;7.19;40.67;99326.39;223543;184;145838;-71
2023/03/17 21:35:49;;;;;;;22.90;12.10;;;;;;;7.12;40.77;99327.42;223425;184;139958;-73
2023/03/17 21:40:54;;;;;;;22.60;11.30;;;;;;;7.08;40.76;99327.90;223571;184;136557;-74
2023/03/17 21:45:58;;;;;;;23.00;11.40;;;;;;;7.02;41.07;99327.11;223540;184;145151;-74
2023/03/17 21:51:01;;;;;;;23.00;11.00;;;;;;;6.96;41.29;99324.90;223452;184;139066;-71
2023/03/17 21:56:05;;;;;;;23.80;11.50;;;;;;;6.95;41.36;99326.36;223479;184;137042;-71
2023/03/17 22:01:10;;;;;;;26.90;12.60;;;;;;;6.90;41.63;99324.46;223190;184;146755;-71
2023/03/17 22:06:15;;;;;;;27.40;14.20;;;;;;;6.83;41.70;99329.85;223361;184;138880;-71
2023/03/17 22:11:19;;;;;;;31.80;12.00;;;;;;;6.77;42.14;99331.00;223432;184;137963;-71
2023/03/17 22:16:23;;;;;;;24.60;11.60;;;;;;;6.71;42.19;99332.68;223432;184;146442;-71
2023/03/17 22:21:28;;;;;;;23.80;11.90;;;;;;;6.65;42.50;99331.34;223490;184;138924;-71
2023/03/17 22:26:31;;;;;;;26.40;12.40;;;;;;;6.58;42.68;99326.88;223286;184;136960;-70
2023/03/17 22:31:35;;;;;;;25.50;12.00;;;;;;;6.53;42.71;99331.27;223392;183;145722;-71
2023/03/17 22:36:39;;;;;;;24.20;11.50;;;;;;;6.49;42.80;99329.88;223439;184;138420;-71
2023/03/17 22:41:43;;;;;;;26.10;12.10;;;;;;;6.43;43.05;99326.75;223348;184;139438;-74
2023/03/17 22:46:46;;;;;;;22.90;11.50;;;;;;;6.37;43.07;99326.98;223535;184;145142;-73
2023/03/17 22:51:49;;;;;;;22.90;11.60;;;;;;;6.31;43.26;99324.06;223482;184;138562;-71
2023/03/17 22:56:53;;;;;;;22.20;11.60;;;;;;;6.26;43.17;99318.95;223437;184;136403;-71
2023/03/17 23:01:57;;;;;;;23.20;11.60;;;;;;;6.24;43.16;99319.04;222244;184;145502;-72
2023/03/17 23:07:02;;;;;;;25.00;11.40;;;;;;;6.22;43.13;99315.09;222101;184;139761;-74
2023/03/17 23:12:06;;;;;;;25.30;12.80;;;;;;;6.21;43.00;99318.98;222112;184;136228;-73
2023/03/17 23:17:10;;;;;;;24.90;12.20;;;;;;;6.18;43.28;99313.66;223345;184;145883;-73
2023/03/17 23:22:13;;;;;;;23.50;12.50;;;;;;;6.14;43.42;99315.20;223447;184;139100;-72
2023/03/17 23:27:16;;;;;;;24.60;12.40;;;;;;;6.11;43.39;99317.64;223453;184;149606;-72
2023/03/17 23:32:19;;;;;;;29.40;13.10;;;;;;;6.07;43.56;99318.00;223363;184;145619;-72
2023/03/17 23:37:23;;;;;;;26.00;12.40;;;;;;;6.03;43.58;99321.10;222850;184;139944;-74
2023/03/17 23:42:27;;;;;;;23.10;12.40;;;;;;;6.01;43.68;99327.70;223410;184;137032;-73
2023/03/17 23:47:37;;;;;;;23.20;12.70;;;;;;;5.97;43.51;99326.84;223401;184;145720;-72
2023/03/17 23:52:41;;;;;;;28.40;12.20;;;;;;;5.93;43.85;99318.51;223302;184;138529;-73
2023/03/17 23:57:44;;;;;;;27.90;13.00;;;;;;;5.89;43.84;99310.70;223374;184;136401;-72
